Hauptseite
METAR-TAF:

METAR-TAF

Flughäfen :

Vientiane, Laos

Flughafen Vientiane

Breite: 17-57N, Länge: 102-34E, Höhe: 171 m

Beobachtung

Neuester Wetterbericht von vor 20 Minuten, um 16:00 UTC
Windstille
Temperatur 13°C
Luftfeuchtigkeit 100%
Luftdruck 1023 hPa
Sichtweite: 3000 m
feuchter Dunst

METAR: VLVT 181600Z 00000KT 3000 BR NSC 13/13 Q1023 NOSIG

Zeit: 23:20 (16:20 UTC)

Prognose

Neuester Wetterbericht von vor 5 Stunden und 20 Minuten, um 11:00 UTC
Gültige Prognose vom 18 um 12 UTC bis 19 um 12 UTC
Wind 8 kt aus Ost
Sichtweite: 7000 m
Leicht bewölkt in der Höhe von 2000 ft
Durchbrochene Bewölkung in der Höhe von 5000 ft
Zeitweise
vom 18 um 14 UTC bis 18 um 20 UTC
Sichtweite: 3000 m
Durchbrochene Bewölkung in der Höhe von 5000 ft
feuchter Dunst

TAF: VLVT 181100Z 1812/1912 09008KT 7000 FEW020 BKN050 TEMPO 1814/1820 3000 BR BKN050

Wetterbeobachtungen und Prognosen von mehr als 4000 Flughäfen (METAR und TAF Bericht).

Die verfügbaren Stationen werden durch gelbe und rote Markierungen auf der Karte dargestellt.

Führen Sie die Maus auf sie, um den Namen der Station zu sehen.

Darauf klicken, um die Beobachtung von Wetterbeobachtungen und Prognosen zu sehen.

Um die Karte zu ändern : klicken Sie auf den grünen Tasten mit einem schwarzen Kreuz Zum Vergrößern, auf den grünen Button mit einem Gedankenstrich zu verkleinern, oder auf die grünen Pfeile für benachbarte Karten.


METAR-TAF: